Time;durP1;ratioP1;P1;durP2;ratioP2;P2;SDS_P1;SDS_P2;PMS_P1;PMS_P2;Temp;Humidity;BMP_temperature;BMP_pressure;BME280_temperature;BME280_humidity;BME280_pressure;Samples;Min_cycle;Max_cycle;Signal;HPM_P1;HPM_P2
2021/03/22 00:01:17;;;;;;;28.48;13.70;;;;;;;0.42;68.74;98538.72;3549073;27;20042;-56
2021/03/22 00:02:59;;;;;;;28.00;14.27;;;;;;;0.42;68.88;98525.97;3552450;27;20066;-56
2021/03/22 00:04:41;;;;;;;28.33;13.48;;;;;;;0.42;68.87;98521.72;3548780;27;20042;-55
2021/03/22 00:06:22;;;;;;;23.17;11.25;;;;;;;0.42;68.58;98519.19;3551978;27;20419;-54
2021/03/22 00:08:05;;;;;;;27.70;13.68;;;;;;;0.43;68.74;98525.16;3549943;27;20069;-56
2021/03/22 00:09:47;;;;;;;31.20;14.15;;;;;;;0.45;68.55;98515.84;3551676;27;20047;-51
2021/03/22 00:11:28;;;;;;;31.70;14.27;;;;;;;0.46;68.80;98517.59;3551124;27;20046;-50
2021/03/22 00:13:11;;;;;;;24.02;11.57;;;;;;;0.45;68.62;98512.44;3547575;27;20095;-51
2021/03/22 00:14:53;;;;;;;28.20;13.63;;;;;;;0.43;68.54;98508.16;3552431;27;20411;-51
2021/03/22 00:16:35;;;;;;;30.05;14.10;;;;;;;0.42;68.92;98496.22;3548732;27;20042;-50
2021/03/22 00:18:20;;;;;;;24.17;12.05;;;;;;;0.42;68.92;98497.91;3551312;27;20103;-52
2021/03/22 00:20:03;;;;;;;21.98;10.52;;;;;;;0.40;68.82;98494.41;3550999;27;20050;-49
2021/03/22 00:21:44;;;;;;;28.60;13.27;;;;;;;0.39;68.78;98492.69;3548730;27;20050;-53
2021/03/22 00:23:26;;;;;;;30.58;12.98;;;;;;;0.39;68.59;98493.56;3552265;27;20055;-53
2021/03/22 00:25:09;;;;;;;31.00;13.55;;;;;;;0.38;68.66;98494.38;3548759;27;20054;-51
2021/03/22 00:26:50;;;;;;;35.72;15.25;;;;;;;0.36;69.24;98484.94;3552491;27;20050;-51
2021/03/22 00:28:38;;;;;;;26.10;13.32;;;;;;;0.35;69.04;98490.88;3548862;27;20051;-54
2021/03/22 00:30:22;;;;;;;27.17;14.13;;;;;;;0.32;69.21;98486.50;3551334;27;20047;-56
2021/03/22 00:32:06;;;;;;;34.20;15.75;;;;;;;0.32;69.17;98488.19;3552327;27;20058;-55
2021/03/22 00:33:47;;;;;;;32.28;15.02;;;;;;;0.32;68.95;98485.66;3549314;27;20071;-50
2021/03/22 00:35:29;;;;;;;26.95;13.13;;;;;;;0.29;69.13;98481.28;3552445;27;20047;-50
2021/03/22 00:37:10;;;;;;;30.85;14.65;;;;;;;0.29;69.24;98488.09;3550956;27;20124;-50
2021/03/22 00:38:51;;;;;;;33.80;14.82;;;;;;;0.26;69.43;98487.97;3551960;27;20051;-50
2021/03/22 00:40:35;;;;;;;37.50;15.20;;;;;;;0.23;69.40;98493.84;3549178;27;20419;-52
2021/03/22 00:42:16;;;;;;;32.13;13.38;;;;;;;0.21;69.34;98482.72;3548890;27;20054;-51
2021/03/22 00:43:58;;;;;;;37.92;16.10;;;;;;;0.20;69.54;98494.59;3552959;27;20499;-51
2021/03/22 00:45:39;;;;;;;38.20;17.13;;;;;;;0.17;69.59;98484.31;3548585;27;20096;-50
2021/03/22 00:47:21;;;;;;;30.92;14.63;;;;;;;0.15;69.63;98483.34;3552261;27;20057;-51
2021/03/22 00:49:03;;;;;;;36.22;15.20;;;;;;;0.14;69.73;98483.31;3549704;27;20415;-51
2021/03/22 00:50:44;;;;;;;33.10;14.40;;;;;;;0.11;69.96;98475.56;3551668;27;20046;-51
2021/03/22 00:52:25;;;;;;;37.42;16.50;;;;;;;0.07;69.68;98478.81;3548940;27;20479;-50
2021/03/22 00:54:07;;;;;;;33.83;15.57;;;;;;;0.02;69.97;98482.06;3550006;27;20563;-54
2021/03/22 00:55:48;;;;;;;45.45;18.30;;;;;;;-0.01;70.45;98481.06;3550836;27;20098;-56
2021/03/22 00:57:29;;;;;;;59.05;19.23;;;;;;;-0.05;70.24;98475.00;3548260;27;20393;-55
2021/03/22 00:59:11;;;;;;;54.13;17.90;;;;;;;-0.08;70.72;98484.22;3552300;27;20054;-52
2021/03/22 01:00:55;;;;;;;43.30;16.38;;;;;;;-0.12;70.51;98478.13;3550735;27;20051;-54
2021/03/22 01:02:37;;;;;;;43.35;16.65;;;;;;;-0.14;70.63;98479.78;3551612;27;20078;-55
2021/03/22 01:04:19;;;;;;;42.03;16.63;;;;;;;-0.17;70.63;98477.09;3549068;27;20046;-55
2021/03/22 01:06:01;;;;;;;48.05;16.98;;;;;;;-0.18;70.93;98476.25;3549934;27;20054;-54
2021/03/22 01:08:01;;;;;;;40.67;17.40;;;;;;;-0.20;71.13;98476.97;3552796;27;20597;-55
2021/03/22 01:09:43;;;;;;;45.78;17.63;;;;;;;-0.21;71.08;98481.22;3549046;27;20043;-51
2021/03/22 01:11:24;;;;;;;47.72;17.40;;;;;;;-0.23;71.22;98484.53;3551792;27;20047;-53
2021/03/22 01:13:08;;;;;;;45.92;17.35;;;;;;;-0.22;71.53;98483.72;3550452;27;20194;-53
2021/03/22 01:14:49;;;;;;;43.20;16.05;;;;;;;-0.20;70.85;98475.31;3552002;27;20499;-51
2021/03/22 01:16:33;;;;;;;35.75;15.48;;;;;;;-0.15;70.80;98476.38;3552896;27;20042;-52
2021/03/22 01:18:16;;;;;;;;;;;;;;;-0.12;71.05;98485.78;3551728;27;20070;-53
2021/03/22 01:19:58;;;;;;;31.70;13.77;;;;;;;-0.08;70.91;98484.22;3553816;27;19962;-52
2021/03/22 01:21:41;;;;;;;34.97;14.10;;;;;;;-0.05;70.92;98475.00;3554011;27;20054;-52
2021/03/22 01:23:23;;;;;;;28.83;14.18;;;;;;;-0.02;70.56;98479.34;3552390;27;20061;-50
2021/03/22 01:25:06;;;;;;;29.85;15.02;;;;;;;0.00;70.55;98476.03;3553087;27;20133;-50
2021/03/22 01:26:49;;;;;;;26.35;13.25;;;;;;;0.03;70.22;98485.47;3552718;27;20187;-50
2021/03/22 01:28:31;;;;;;;33.67;16.15;;;;;;;0.08;70.00;98480.53;3554259;27;20050;-50
2021/03/22 01:30:15;;;;;;;31.27;14.32;;;;;;;0.09;70.20;98477.19;3550791;27;20042;-51
2021/03/22 01:31:57;;;;;;;27.65;14.70;;;;;;;0.10;70.27;98484.91;3554357;27;20058;-50
2021/03/22 01:33:41;;;;;;;28.63;15.07;;;;;;;0.11;70.43;98483.22;3552191;27;20099;-51
2021/03/22 01:35:22;;;;;;;32.47;15.07;;;;;;;0.11;70.11;98473.88;3551999;27;20100;-51
2021/03/22 01:37:05;;;;;;;30.15;13.38;;;;;;;0.13;69.95;98472.22;3553270;27;20058;-51
2021/03/22 01:38:48;;;;;;;31.75;15.40;;;;;;;0.12;70.17;98465.41;3550523;27;20419;-51
2021/03/22 01:40:43;;;;;;;37.20;14.32;;;;;;;0.12;70.24;98470.53;3554335;27;20046;-57
2021/03/22 01:42:37;;;;;;;35.83;15.32;;;;;;;0.10;70.71;98468.72;3550549;27;20534;-54
2021/03/22 01:44:25;;;;;;;31.15;14.55;;;;;;;0.10;70.33;98466.16;3553165;27;20046;-55
2021/03/22 01:46:07;;;;;;;29.67;15.15;;;;;;;0.09;70.62;98467.84;3553333;27;20046;-55
2021/03/22 01:47:48;;;;;;;32.35;14.93;;;;;;;0.09;70.49;98464.44;3552864;27;20043;-54
2021/03/22 01:49:38;;;;;;;32.72;15.00;;;;;;;0.09;70.46;98469.53;3553979;27;20046;-56
2021/03/22 01:51:21;;;;;;;28.58;13.30;;;;;;;0.07;70.53;98464.38;3552604;27;20074;-54
2021/03/22 01:53:02;;;;;;;31.70;14.98;;;;;;;0.09;70.63;98467.00;3552304;27;20533;-54
2021/03/22 01:54:44;;;;;;;33.63;15.38;;;;;;;0.07;70.84;98464.38;3551744;27;20080;-55
2021/03/22 01:56:30;;;;;;;30.17;13.50;;;;;;;0.07;70.69;98466.06;3550282;27;20043;-56
2021/03/22 01:58:11;;;;;;;27.80;14.65;;;;;;;0.05;70.81;98468.56;3554066;27;20046;-55
2021/03/22 01:59:58;;;;;;;34.13;15.20;;;;;;;0.05;71.14;98463.47;3550358;27;20484;-54
2021/03/22 02:01:43;;;;;;;27.50;12.63;;;;;;;0.05;70.87;98468.56;3553443;27;20092;-52
2021/03/22 02:03:25;;;;;;;28.98;14.50;;;;;;;0.06;70.98;98462.63;3551012;27;20061;-52
2021/03/22 02:05:10;;;;;;;26.67;13.93;;;;;;;0.05;70.96;98468.56;3551888;27;20054;-56
2021/03/22 02:06:52;;;;;;;27.80;14.05;;;;;;;0.03;70.99;98458.31;3552588;27;20085;-55
2021/03/22 02:08:38;;;;;;;26.33;13.15;;;;;;;0.04;70.84;98459.16;3550369;27;20046;-52
2021/03/22 02:10:20;;;;;;;24.13;10.80;;;;;;;0.06;70.61;98465.19;3553594;27;20045;-55
2021/03/22 02:12:05;;;;;;;27.15;13.18;;;;;;;0.06;70.83;98467.72;3551417;27;20050;-53
2021/03/22 02:13:48;;;;;;;29.88;13.73;;;;;;;0.06;70.97;98459.22;3550856;27;20043;-51
2021/03/22 02:15:30;;;;;;;28.70;13.57;;;;;;;0.04;71.19;98461.72;3551329;27;20087;-50
2021/03/22 02:17:20;;;;;;;28.95;13.80;;;;;;;0.04;71.17;98457.47;3551540;27;20039;-54
2021/03/22 02:19:17;;;;;;;29.58;13.98;;;;;;;0.04;71.17;98459.16;3539759;28;20404;-51
2021/03/22 02:21:45;;;;;;;27.38;14.98;;;;;;;0.04;71.21;98466.81;3549151;27;20046;-50
2021/03/22 02:24:05;;;;;;;33.25;15.35;;;;;;;0.03;71.18;98460.84;3549447;27;20058;-50
2021/03/22 02:25:52;;;;;;;30.45;14.52;;;;;;;0.03;71.51;98455.75;3551379;27;20488;-52
2021/03/22 02:28:03;;;;;;;27.00;12.13;;;;;;;0.03;71.19;98454.88;3552412;27;20066;-52
2021/03/22 02:29:58;;;;;;;29.73;13.38;;;;;;;0.03;71.27;98449.78;3549874;27;20046;-51
2021/03/22 02:32:03;;;;;;;29.75;13.32;;;;;;;0.03;71.51;98453.22;3551315;27;20594;-50
2021/03/22 02:34:06;;;;;;;32.97;14.35;;;;;;;0.02;71.51;98451.47;3553189;27;20107;-55
2021/03/22 02:35:53;;;;;;;28.48;13.40;;;;;;;0.03;71.61;98452.31;3552028;27;20503;-56
2021/03/22 02:37:42;;;;;;;32.47;15.57;;;;;;;0.02;71.69;98453.16;3551613;27;20074;-55
2021/03/22 02:39:31;;;;;;;33.70;15.30;;;;;;;0.02;71.91;98446.38;3551971;27;20404;-55
2021/03/22 02:41:20;;;;;;;30.67;13.65;;;;;;;0.02;71.93;98443.81;3549745;27;20042;-55
2021/03/22 02:43:05;;;;;;;28.42;14.73;;;;;;;0.03;72.21;98447.22;3553567;27;20058;-56
2021/03/22 02:44:46;;;;;;;26.23;13.23;;;;;;;0.03;71.76;98442.13;3552242;27;20043;-56
2021/03/22 02:46:39;;;;;;;30.67;12.95;;;;;;;0.03;71.94;98447.22;3552264;27;20432;-56
2021/03/22 02:48:24;;;;;;;27.20;11.75;;;;;;;0.03;71.65;98440.47;3553304;27;20164;-57
2021/03/22 02:50:12;;;;;;;30.50;13.50;;;;;;;0.04;71.69;98438.78;3549893;27;20049;-56
2021/03/22 02:52:05;;;;;;;32.95;14.88;;;;;;;0.04;72.13;98441.31;3553239;27;20046;-55
2021/03/22 02:53:54;;;;;;;29.13;14.13;;;;;;;0.04;72.32;98442.19;3550078;27;20384;-56
2021/03/22 02:55:47;;;;;;;36.85;14.88;;;;;;;0.03;71.99;98439.56;3550098;27;20054;-56
2021/03/22 02:57:37;;;;;;;32.80;14.82;;;;;;;0.02;71.93;98441.25;3552563;27;20058;-52
2021/03/22 02:59:22;;;;;;;28.02;14.45;;;;;;;0.02;72.21;98436.16;3549943;27;20039;-50
2021/03/22 03:01:08;;;;;;;29.10;13.85;;;;;;;0.03;72.11;98435.38;3552864;27;20053;-51
2021/03/22 03:02:51;;;;;;;33.30;15.13;;;;;;;0.03;72.15;98429.38;3552683;27;20614;-51
2021/03/22 03:04:36;;;;;;;33.25;14.27;;;;;;;0.02;72.04;98423.41;3549969;27;20083;-51
2021/03/22 03:06:19;;;;;;;34.40;15.50;;;;;;;0.04;72.24;98426.03;3552751;27;20046;-50
2021/03/22 03:08:04;;;;;;;29.70;14.90;;;;;;;0.03;72.25;98427.72;3551734;27;20507;-51
2021/03/22 03:09:46;;;;;;;28.23;13.90;;;;;;;0.04;72.35;98426.03;3553284;27;20062;-50
2021/03/22 03:11:27;;;;;;;28.67;14.13;;;;;;;0.03;72.19;98425.16;3549514;27;20038;-50
2021/03/22 03:13:09;;;;;;;32.50;15.55;;;;;;;0.02;72.61;98422.56;3549834;27;20054;-52
2021/03/22 03:14:53;;;;;;;28.95;12.57;;;;;;;0.03;72.32;98432.81;3551531;27;20038;-50
2021/03/22 03:16:35;;;;;;;34.57;16.17;;;;;;;0.02;72.77;98417.47;3551968;27;20184;-52
2021/03/22 03:18:17;;;;;;;34.78;15.50;;;;;;;0.00;72.84;98425.06;3552946;27;20089;-51
2021/03/22 03:19:58;;;;;;;30.00;15.32;;;;;;;0.00;72.75;98427.59;3550819;27;20046;-51
2021/03/22 03:21:40;;;;;;;33.00;15.05;;;;;;;-0.00;72.70;98421.66;3552827;27;20059;-51
2021/03/22 03:23:21;;;;;;;34.08;14.90;;;;;;;-0.01;73.02;98428.41;3549181;27;20084;-53
2021/03/22 03:25:04;;;;;;;33.38;15.35;;;;;;;-0.02;72.82;98426.69;3551133;27;20038;-51
2021/03/22 03:26:46;;;;;;;30.88;14.18;;;;;;;-0.02;72.93;98431.78;3551576;27;20091;-50
2021/03/22 03:28:27;;;;;;;35.22;15.70;;;;;;;-0.02;73.05;98428.38;3549361;27;20043;-51
2021/03/22 03:30:15;;;;;;;31.23;16.65;;;;;;;-0.03;73.17;98431.72;3553032;27;20050;-53
2021/03/22 03:31:56;;;;;;;28.95;13.38;;;;;;;-0.05;73.06;98418.91;3549138;27;20643;-52
2021/03/22 03:33:38;;;;;;;34.42;14.95;;;;;;;-0.04;72.90;98423.22;3552299;27;20158;-50
2021/03/22 03:35:22;;;;;;;33.47;15.90;;;;;;;-0.04;73.35;98428.31;3548768;27;20088;-50
2021/03/22 03:37:05;;;;;;;;;;;;;;;-0.05;73.07;98421.47;3550872;27;20057;-50
2021/03/22 03:38:46;;;;;;;26.90;13.65;;;;;;;-0.04;73.08;98418.13;3552111;27;19969;-50
2021/03/22 03:40:30;;;;;;;32.47;15.05;;;;;;;-0.04;73.16;98417.22;3549374;27;20058;-50
2021/03/22 03:42:12;;;;;;;29.95;14.95;;;;;;;-0.05;73.11;98412.97;3552684;27;20076;-50
2021/03/22 03:43:53;;;;;;;28.58;14.73;;;;;;;-0.05;73.38;98416.38;3549093;27;20047;-52
2021/03/22 03:45:38;;;;;;;33.10;15.45;;;;;;;-0.05;73.26;98415.50;3552147;27;20053;-50
2021/03/22 03:47:24;;;;;;;32.00;15.30;;;;;;;-0.07;73.09;98409.50;3550482;27;20047;-50
2021/03/22 03:49:07;;;;;;;32.38;15.23;;;;;;;-0.08;73.20;98411.16;3550708;27;20050;-50
2021/03/22 03:50:50;;;;;;;31.33;14.25;;;;;;;-0.07;73.17;98412.06;3551010;27;20046;-51
2021/03/22 03:52:32;;;;;;;31.80;15.13;;;;;;;-0.07;73.29;98412.06;3549172;27;20533;-51
2021/03/22 03:54:13;;;;;;;30.42;14.90;;;;;;;-0.08;73.32;98412.84;3552919;27;20058;-50
2021/03/22 03:55:55;;;;;;;35.22;16.45;;;;;;;-0.09;73.41;98409.44;3549239;27;20055;-51
2021/03/22 03:57:36;;;;;;;29.58;13.60;;;;;;;-0.09;73.13;98406.03;3551426;27;20047;-50
2021/03/22 03:59:19;;;;;;;30.48;15.00;;;;;;;-0.10;73.46;98400.03;3550909;27;20082;-50
2021/03/22 04:01:00;;;;;;;32.15;15.45;;;;;;;-0.11;73.58;98405.97;3549096;27;20042;-52
2021/03/22 04:02:42;;;;;;;31.20;14.57;;;;;;;-0.10;73.45;98400.03;3551279;27;20043;-51
2021/03/22 04:04:25;;;;;;;30.27;15.27;;;;;;;-0.08;73.19;98395.00;3548906;27;20501;-50
2021/03/22 04:06:09;;;;;;;32.20;15.57;;;;;;;-0.08;73.36;98398.41;3552621;27;20052;-54
2021/03/22 04:07:51;;;;;;;27.25;13.82;;;;;;;-0.08;73.44;98392.47;3548945;27;20103;-49
2021/03/22 04:09:33;;;;;;;32.42;15.52;;;;;;;-0.08;73.35;98395.00;3550633;27;20054;-50
2021/03/22 04:11:19;;;;;;;35.80;15.75;;;;;;;-0.09;73.54;98393.28;3550997;27;20043;-51
2021/03/22 04:13:01;;;;;;;32.50;14.98;;;;;;;-0.09;73.41;98393.28;3549781;27;20053;-50
2021/03/22 04:14:42;;;;;;;38.63;16.00;;;;;;;-0.09;73.35;98393.28;3552767;27;20050;-51
2021/03/22 04:16:27;;;;;;;34.47;15.25;;;;;;;-0.10;73.38;98389.00;3549081;27;20038;-50
2021/03/22 04:18:08;;;;;;;34.20;15.07;;;;;;;-0.10;73.64;98384.75;3551974;27;20082;-50
2021/03/22 04:19:50;;;;;;;32.53;14.65;;;;;;;-0.09;73.51;98386.50;3550367;27;20434;-50
2021/03/22 04:21:32;;;;;;;30.80;14.98;;;;;;;-0.10;73.76;98382.22;3550238;27;20042;-51
2021/03/22 04:23:15;;;;;;;37.25;15.20;;;;;;;-0.10;73.37;98382.22;3551230;27;20085;-50
2021/03/22 04:24:56;;;;;;;36.25;16.33;;;;;;;-0.08;73.46;98388.22;3548707;27;20491;-51
2021/03/22 04:26:38;;;;;;;34.00;16.38;;;;;;;-0.08;73.80;98385.66;3552252;27;20054;-50
2021/03/22 04:28:20;;;;;;;30.65;14.48;;;;;;;-0.08;73.85;98388.22;3552604;27;20039;-51
2021/03/22 04:30:03;;;;;;;32.33;15.25;;;;;;;-0.05;73.51;98387.47;3551880;27;20419;-50
2021/03/22 04:31:44;;;;;;;30.10;14.95;;;;;;;-0.05;73.09;98385.78;3551369;27;20051;-51
2021/03/22 04:33:26;;;;;;;32.50;16.10;;;;;;;-0.03;72.87;98394.34;3551174;27;20431;-50
2021/03/22 04:35:09;;;;;;;30.15;15.23;;;;;;;-0.02;72.90;98388.44;3552518;27;20047;-55
2021/03/22 04:36:50;;;;;;;32.83;16.13;;;;;;;0.00;73.15;98379.16;3550936;27;20050;-55
2021/03/22 04:38:32;;;;;;;34.28;16.83;;;;;;;0.01;73.43;98386.00;3552231;27;20050;-55
2021/03/22 04:40:15;;;;;;;34.72;15.88;;;;;;;0.03;73.18;98391.13;3549876;27;20049;-55
2021/03/22 04:41:57;;;;;;;32.53;15.95;;;;;;;0.04;72.86;98391.19;3551743;27;20093;-56
2021/03/22 04:43:38;;;;;;;31.75;15.65;;;;;;;0.06;72.92;98395.50;3549102;27;20050;-55
2021/03/22 04:45:22;;;;;;;41.40;16.85;;;;;;;0.08;72.84;98397.25;3549439;27;20051;-56
2021/03/22 04:47:04;;;;;;;39.63;17.50;;;;;;;0.08;72.98;98392.16;3553450;27;20593;-56
2021/03/22 04:48:46;;;;;;;30.23;15.93;;;;;;;0.11;72.96;98399.06;3551240;27;20047;-55
2021/03/22 04:50:29;;;;;;;29.35;13.98;;;;;;;0.11;72.53;98402.47;3554586;27;20050;-55
2021/03/22 04:52:10;;;;;;;34.35;16.58;;;;;;;0.12;73.13;98399.13;3551292;27;20042;-54
2021/03/22 04:53:52;;;;;;;36.08;17.08;;;;;;;0.14;73.25;98392.38;3553989;27;20065;-55
2021/03/22 04:55:34;;;;;;;35.13;17.08;;;;;;;0.14;72.96;98392.38;3551718;27;20151;-55
2021/03/22 04:57:25;;;;;;;36.70;15.95;;;;;;;0.17;72.90;98391.63;3553538;27;20123;-55
2021/03/22 04:59:06;;;;;;;30.75;15.38;;;;;;;0.17;72.60;98397.59;3553870;27;20054;-55
2021/03/22 05:00:48;;;;;;;41.38;18.65;;;;;;;0.20;72.37;98397.69;3550856;27;20498;-56
2021/03/22 05:02:29;;;;;;;34.97;15.15;;;;;;;0.22;72.53;98397.75;3554355;27;20522;-56
2021/03/22 05:04:13;;;;;;;41.47;18.73;;;;;;;0.23;72.62;98395.25;3551195;27;20062;-55
2021/03/22 05:05:54;;;;;;;40.53;18.65;;;;;;;0.26;72.66;98401.25;3552464;27;20053;-55
2021/03/22 05:07:36;;;;;;;42.30;18.92;;;;;;;0.26;72.61;98394.50;3553734;27;20151;-55
2021/03/22 05:09:18;;;;;;;47.33;19.00;;;;;;;0.28;72.11;98397.06;3553137;27;20050;-55
2021/03/22 05:11:00;;;;;;;45.42;20.85;;;;;;;0.30;72.52;98395.47;3554370;27;20054;-56
2021/03/22 05:12:42;;;;;;;42.95;19.40;;;;;;;0.31;72.16;98392.09;3551013;27;20047;-55
2021/03/22 05:14:23;;;;;;;46.80;21.40;;;;;;;0.33;72.21;98403.19;3552908;27;20050;-56
2021/03/22 05:16:05;;;;;;;42.92;20.17;;;;;;;0.34;72.14;98395.59;3553170;27;20054;-55
2021/03/22 05:17:47;;;;;;;41.85;19.55;;;;;;;0.35;72.00;98397.34;3552204;27;20574;-56
2021/03/22 05:19:29;;;;;;;48.15;20.63;;;;;;;0.37;71.94;98398.25;3553037;27;20046;-57
2021/03/22 05:21:10;;;;;;;37.33;17.85;;;;;;;0.39;71.97;98403.41;3552647;27;20057;-54
2021/03/22 05:22:52;;;;;;;61.78;24.13;;;;;;;0.41;71.72;98409.44;3553711;27;20179;-55
2021/03/22 05:24:34;;;;;;;59.97;24.52;;;;;;;0.42;71.94;98408.63;3552832;27;20427;-57
2021/03/22 05:26:15;;;;;;;58.28;23.48;;;;;;;0.45;71.85;98411.25;3554523;27;20066;-56
2021/03/22 05:27:57;;;;;;;59.08;23.15;;;;;;;0.48;71.94;98413.91;3551725;27;20050;-56
2021/03/22 05:29:39;;;;;;;50.20;20.83;;;;;;;0.50;72.02;98409.72;3552438;27;20082;-56
2021/03/22 05:31:20;;;;;;;45.25;18.73;;;;;;;0.53;71.78;98412.38;3554587;27;20053;-56
2021/03/22 05:33:05;;;;;;;37.75;17.25;;;;;;;0.55;71.65;98410.75;3550910;27;20046;-56
2021/03/22 05:34:47;;;;;;;39.28;16.27;;;;;;;0.57;71.39;98415.91;3554138;27;20055;-56
2021/03/22 05:36:28;;;;;;;47.55;20.23;;;;;;;0.58;71.47;98408.31;3550463;27;20042;-54
2021/03/22 05:38:10;;;;;;;42.80;18.70;;;;;;;0.60;71.44;98414.31;3554420;27;20100;-56
2021/03/22 05:39:52;;;;;;;36.92;14.57;;;;;;;0.63;71.40;98417.78;3550706;27;20050;-56
2021/03/22 05:41:43;;;;;;;40.67;17.73;;;;;;;0.65;71.28;98418.69;3552072;27;20058;-56
2021/03/22 05:43:49;;;;;;;50.05;19.80;;;;;;;0.68;71.45;98416.25;3553799;27;20258;-55
2021/03/22 05:46:00;;;;;;;47.95;18.23;;;;;;;0.72;71.26;98418.06;3545612;27;20050;-57
2021/03/22 05:47:50;;;;;;;35.42;13.77;;;;;;;0.75;71.08;98416.53;3549893;27;20488;-55
2021/03/22 05:49:57;;;;;;;42.30;18.70;;;;;;;0.80;70.45;98421.75;3553162;27;20515;-56
2021/03/22 05:52:11;;;;;;;43.67;20.27;;;;;;;0.84;70.14;98421.03;3536316;27;20070;-55
2021/03/22 05:54:02;;;;;;;45.67;20.05;;;;;;;0.87;69.93;98417.72;3554005;27;20051;-55
2021/03/22 05:55:52;;;;;;;46.35;21.08;;;;;;;0.90;70.05;98421.22;3549095;27;20609;-56
2021/03/22 05:57:44;;;;;;;41.15;19.10;;;;;;;0.94;69.88;98407.72;3549684;27;20043;-56
2021/03/22 05:59:39;;;;;;;44.60;18.58;;;;;;;0.99;69.92;98413.84;3551676;27;20485;-55
2021/03/22 06:01:37;;;;;;;43.28;18.23;;;;;;;1.04;70.03;98413.16;3553609;27;20522;-54
2021/03/22 06:03:27;;;;;;;42.35;18.15;;;;;;;1.09;69.71;98416.69;3550323;27;20054;-56
2021/03/22 06:05:19;;;;;;;34.17;17.08;;;;;;;1.12;69.37;98407.44;3552784;27;20055;-55
2021/03/22 06:07:04;;;;;;;39.38;17.45;;;;;;;1.20;69.38;98401.72;3566512;27;20046;-56
2021/03/22 06:08:51;;;;;;;25.55;11.85;;;;;;;1.28;69.54;98408.78;3554813;27;20447;-55
2021/03/22 06:10:42;;;;;;;32.13;14.23;;;;;;;1.33;69.43;98407.22;3553840;27;20427;-54
2021/03/22 06:12:36;;;;;;;34.75;16.88;;;;;;;1.40;68.81;98409.97;3552718;27;20047;-54
2021/03/22 06:14:25;;;;;;;36.45;16.80;;;;;;;1.45;68.63;98410.97;3549848;27;20055;-55
2021/03/22 06:16:19;;;;;;;31.42;15.60;;;;;;;1.55;69.24;98407.88;3553943;27;20086;-58
2021/03/22 06:18:04;;;;;;;25.95;11.70;;;;;;;1.66;68.51;98408.16;3550654;27;20057;-51
2021/03/22 06:19:50;;;;;;;28.02;12.45;;;;;;;1.69;68.23;98409.13;3551642;27;20080;-51
2021/03/22 06:21:34;;;;;;;25.08;9.93;;;;;;;1.78;68.49;98413.63;3551739;27;20051;-56
2021/03/22 06:23:21;;;;;;;21.98;11.07;;;;;;;1.88;67.97;98404.50;3550307;27;20043;-55
2021/03/22 06:25:14;;;;;;;28.05;11.32;;;;;;;1.94;67.20;98403.00;3539429;28;20051;-56
2021/03/22 06:26:58;;;;;;;22.83;11.23;;;;;;;2.00;67.22;98409.09;3551148;27;20514;-51
2021/03/22 06:28:40;;;;;;;;;;;;;;;2.04;66.85;98418.56;3552440;27;20054;-51
2021/03/22 06:30:24;;;;;;;24.13;10.77;;;;;;;2.01;66.76;98410.84;3551168;27;19923;-55
2021/03/22 06:32:10;;;;;;;22.98;11.48;;;;;;;2.04;67.35;98413.47;3550191;27;20057;-52
2021/03/22 06:33:54;;;;;;;24.23;11.63;;;;;;;2.10;67.17;98411.94;3539240;28;20159;-56
2021/03/22 06:35:36;;;;;;;;;;;;;;;2.16;67.09;98412.94;3547257;27;20047;-55
2021/03/22 06:37:21;;;;;;;25.40;11.00;;;;;;;2.19;67.04;98413.03;3553626;27;19934;-55
2021/03/22 06:39:05;;;;;;;26.50;12.10;;;;;;;2.23;67.22;98417.38;3552782;27;20050;-56
2021/03/22 06:40:47;;;;;;;25.52;13.43;;;;;;;2.24;67.17;98417.44;3550428;27;20519;-54
2021/03/22 06:42:28;;;;;;;24.50;11.50;;;;;;;2.24;67.11;98424.25;3553028;27;20054;-55
2021/03/22 06:44:14;;;;;;;23.27;11.90;;;;;;;2.27;67.48;98422.63;3549970;27;20074;-53
2021/03/22 06:46:09;;;;;;;23.02;11.60;;;;;;;2.37;67.71;98427.97;3553497;27;20050;-54
2021/03/22 06:48:11;;;;;;;25.13;12.50;;;;;;;2.39;67.64;98424.63;3551555;27;20047;-56
2021/03/22 06:49:55;;;;;;;25.65;12.32;;;;;;;2.40;67.84;98435.75;3550034;27;20051;-54
2021/03/22 06:51:36;;;;;;;24.55;12.30;;;;;;;2.30;68.33;98425.25;3552993;27;20043;-56
2021/03/22 06:53:36;;;;;;;24.63;12.43;;;;;;;2.23;69.38;98420.78;3549773;27;20082;-55
2021/03/22 06:55:28;;;;;;;27.92;12.57;;;;;;;2.14;69.75;98428.25;3552549;27;20054;-55
2021/03/22 06:57:12;;;;;;;17.33;8.55;;;;;;;2.15;69.44;98427.44;3551461;27;20066;-52
2021/03/22 06:59:17;;;;;;;20.15;11.60;;;;;;;2.12;69.72;98435.88;3549835;27;20057;-55
2021/03/22 07:01:23;;;;;;;25.58;14.10;;;;;;;2.08;70.26;98434.06;3546879;27;20522;-54
2021/03/22 07:03:22;;;;;;;26.85;13.25;;;;;;;2.08;69.97;98430.66;3551378;27;20051;-56
2021/03/22 07:05:19;;;;;;;26.17;12.98;;;;;;;2.08;70.79;98426.38;3549964;27;20043;-54
2021/03/22 07:07:09;;;;;;;30.52;14.48;;;;;;;2.15;70.83;98437.66;3552694;27;20078;-55
2021/03/22 07:08:53;;;;;;;26.25;13.57;;;;;;;2.23;71.35;98435.28;3550500;27;20526;-55
2021/03/22 07:10:38;;;;;;;30.60;14.00;;;;;;;2.31;71.62;98432.13;3549772;27;20051;-56
2021/03/22 07:12:23;;;;;;;25.83;13.20;;;;;;;2.37;70.81;98435.66;3552021;27;20047;-55
2021/03/22 07:14:04;;;;;;;27.90;13.52;;;;;;;2.43;71.55;98436.69;3550645;27;20050;-56
2021/03/22 07:15:48;;;;;;;19.65;9.90;;;;;;;2.52;71.43;98438.63;3553171;27;20499;-55
2021/03/22 07:17:30;;;;;;;23.40;12.02;;;;;;;2.51;71.84;98437.72;3549378;27;20050;-55
2021/03/22 07:19:16;;;;;;;30.15;13.00;;;;;;;2.51;72.74;98432.63;3551576;27;20472;-55
2021/03/22 07:21:09;;;;;;;24.83;12.88;;;;;;;2.54;73.13;98436.09;3553140;27;20066;-55
2021/03/22 07:22:50;;;;;;;27.02;13.93;;;;;;;2.58;73.38;98441.31;3550364;27;20079;-56
2021/03/22 07:24:45;;;;;;;25.95;12.80;;;;;;;2.56;73.66;98437.00;3553083;27;20058;-56
2021/03/22 07:26:41;;;;;;;26.50;13.30;;;;;;;2.51;73.79;98442.84;3548675;27;20039;-53
2021/03/22 07:28:31;;;;;;;23.35;12.07;;;;;;;2.47;74.66;98442.75;3552069;27;20046;-50
2021/03/22 07:30:34;;;;;;;26.23;13.80;;;;;;;2.45;75.60;98437.59;3552902;27;20050;-49
2021/03/22 07:32:39;;;;;;;22.50;13.23;;;;;;;2.44;74.91;98438.41;3549333;27;20514;-50
2021/03/22 07:34:37;;;;;;;24.70;11.77;;;;;;;2.44;75.46;98440.97;3550881;27;20042;-53
2021/03/22 07:36:28;;;;;;;23.63;12.07;;;;;;;2.42;75.63;98439.22;3538569;28;20051;-50
2021/03/22 07:38:16;;;;;;;26.10;13.20;;;;;;;2.41;76.58;98442.59;3550508;27;20422;-51
2021/03/22 07:40:01;;;;;;;25.85;13.23;;;;;;;2.43;76.77;98435.81;3551244;27;20468;-50
2021/03/22 07:42:04;;;;;;;22.85;12.02;;;;;;;2.47;76.05;98442.75;3552672;27;20047;-52
2021/03/22 07:44:01;;;;;;;24.50;13.85;;;;;;;2.47;76.04;98443.63;3549195;27;20100;-51
2021/03/22 07:45:58;;;;;;;23.45;13.20;;;;;;;2.42;76.32;98439.22;3552289;27;20049;-53
2021/03/22 07:48:17;;;;;;;24.35;13.85;;;;;;;2.36;77.96;98439.03;3560327;27;20053;-49
2021/03/22 07:50:10;;;;;;;22.48;12.25;;;;;;;2.35;77.62;98447.56;3550128;27;20066;-51
2021/03/22 07:52:17;;;;;;;25.80;13.60;;;;;;;2.29;78.05;98433.78;3549224;27;20047;-49
2021/03/22 07:54:08;;;;;;;26.65;13.45;;;;;;;2.26;78.00;98443.06;3538465;28;20051;-49
2021/03/22 07:55:52;;;;;;;25.63;13.40;;;;;;;2.20;77.70;98448.88;3550104;27;20050;-50
2021/03/22 07:57:43;;;;;;;23.85;13.75;;;;;;;2.14;79.18;98439.31;3549425;27;20050;-51
2021/03/22 07:59:34;;;;;;;23.10;10.85;;;;;;;2.14;78.15;98443.59;3552660;27;20050;-50
2021/03/22 08:01:25;;;;;;;23.92;12.88;;;;;;;2.09;79.44;98440.03;3549135;27;20043;-51
2021/03/22 08:03:20;;;;;;;25.40;14.35;;;;;;;2.05;79.18;98443.34;3552170;27;20053;-51
2021/03/22 08:05:12;;;;;;;25.30;13.82;;;;;;;2.01;80.55;98450.06;3552484;27;20401;-50
2021/03/22 08:07:05;;;;;;;27.88;14.18;;;;;;;1.97;80.39;98453.38;3551164;27;20061;-50
2021/03/22 08:08:56;;;;;;;24.80;12.32;;;;;;;2.00;79.94;98455.13;3552538;27;20500;-50
2021/03/22 08:10:48;;;;;;;25.63;14.20;;;;;;;1.99;80.25;98446.59;3548977;27;20053;-50
2021/03/22 08:12:35;;;;;;;29.33;14.68;;;;;;;1.98;80.70;98449.13;3550494;27;20053;-51
2021/03/22 08:14:20;;;;;;;25.33;13.63;;;;;;;1.99;81.08;98448.28;3549728;27;20047;-50